createdAt,value
2022-10-09T00:01:04.768Z,96.19
2022-10-09T00:03:31.596Z,96.46
2022-10-09T00:05:58.528Z,96.44
2022-10-09T00:08:25.081Z,96.50
2022-10-09T00:10:51.878Z,96.57
2022-10-09T00:13:18.847Z,96.46
2022-10-09T00:15:46.330Z,96.62
2022-10-09T00:18:15.037Z,95.76
2022-10-09T00:20:44.180Z,95.71
2022-10-09T00:23:14.433Z,96.10
2022-10-09T00:25:51.351Z,95.30
2022-10-09T00:28:17.914Z,95.14
2022-10-09T00:30:44.533Z,95.72
2022-10-09T00:33:11.033Z,94.77
2022-10-09T00:35:39.187Z,94.37
2022-10-09T00:38:06.838Z,93.67
2022-10-09T00:40:34.535Z,92.52
2022-10-09T00:43:01.257Z,95.34
2022-10-09T00:45:27.823Z,92.85
2022-10-09T00:48:03.038Z,93.16
2022-10-09T00:50:41.649Z,91.57
2022-10-09T00:53:12.327Z,91.12
2022-10-09T00:55:39.556Z,91.39
2022-10-09T00:58:06.471Z,91.43
2022-10-09T01:00:33.043Z,91.72
2022-10-09T01:02:59.519Z,91.89
2022-10-09T01:05:49.779Z,91.69
2022-10-09T01:08:34.771Z,91.34
2022-10-09T01:11:20.843Z,90.84
2022-10-09T01:13:53.357Z,91.14
2022-10-09T01:16:26.893Z,89.95
2022-10-09T01:19:14.357Z,89.60
2022-10-09T01:21:52.791Z,89.53
2022-10-09T01:24:22.540Z,89.44
2022-10-09T01:27:07.898Z,89.47
2022-10-09T01:29:38.286Z,89.67
2022-10-09T01:32:07.690Z,89.89
2022-10-09T01:34:34.973Z,89.92
2022-10-09T01:37:02.750Z,90.05
2022-10-09T01:39:30.812Z,90.19
2022-10-09T01:41:58.028Z,90.45
2022-10-09T01:44:30.168Z,90.37
2022-10-09T01:46:57.368Z,90.45
2022-10-09T01:49:36.082Z,90.71
2022-10-09T01:52:16.152Z,90.53
2022-10-09T01:55:01.274Z,90.64
2022-10-09T01:57:49.499Z,90.77
2022-10-09T02:00:16.889Z,90.29
2022-10-09T02:02:44.690Z,90.29
2022-10-09T02:05:15.043Z,90.42
2022-10-09T02:07:41.522Z,90.35
2022-10-09T02:10:09.322Z,90.54
2022-10-09T02:12:40.514Z,90.45
2022-10-09T02:15:08.593Z,90.30
2022-10-09T02:17:38.560Z,90.56
2022-10-09T02:20:18.468Z,90.53
2022-10-09T02:22:46.625Z,90.57
2022-10-09T02:25:13.556Z,90.58
2022-10-09T02:27:40.269Z,90.72
2022-10-09T02:30:09.205Z,90.80
2022-10-09T02:32:35.635Z,91.03
2022-10-09T02:35:02.092Z,91.18
2022-10-09T02:37:28.522Z,91.05
2022-10-09T02:39:54.976Z,91.22
2022-10-09T02:42:22.126Z,91.27
2022-10-09T02:44:48.695Z,90.87
2022-10-09T02:47:15.115Z,91.46
2022-10-09T02:49:41.632Z,90.88
2022-10-09T02:52:08.092Z,90.94
2022-10-09T02:54:34.511Z,90.95
2022-10-09T02:57:01.277Z,91.10
2022-10-09T02:59:27.739Z,90.92
2022-10-09T03:01:54.231Z,91.07
2022-10-09T03:04:20.737Z,90.94
2022-10-09T03:06:47.163Z,90.96
2022-10-09T03:09:13.680Z,91.11
2022-10-09T03:11:40.155Z,91.66
2022-10-09T03:14:06.554Z,91.89
2022-10-09T03:16:33.054Z,91.59
2022-10-09T03:19:00.093Z,90.73
2022-10-09T03:21:28.109Z,90.78
2022-10-09T03:23:55.007Z,90.93
2022-10-09T03:26:26.798Z,91.05
2022-10-09T03:28:55.012Z,90.79
2022-10-09T03:31:50.633Z,90.86
2022-10-09T03:34:12.291Z,90.94
2022-10-09T03:36:38.727Z,91.25
2022-10-09T03:39:05.141Z,91.44
2022-10-09T03:41:31.566Z,91.05
2022-10-09T03:43:57.954Z,91.47
2022-10-09T03:46:24.539Z,91.36
2022-10-09T03:48:50.983Z,91.29
2022-10-09T03:51:17.417Z,91.22
2022-10-09T03:53:43.817Z,90.90
2022-10-09T03:56:10.280Z,91.11
2022-10-09T03:58:36.738Z,91.10
2022-10-09T04:01:03.200Z,90.93
2022-10-09T04:03:29.790Z,90.86
2022-10-09T04:05:56.217Z,90.75
2022-10-09T04:08:22.621Z,90.93
2022-10-09T04:10:55.703Z,93.20
2022-10-09T04:13:22.107Z,90.42
2022-10-09T04:15:53.056Z,90.48
2022-10-09T04:18:19.967Z,90.53
2022-10-09T04:20:53.865Z,90.44
2022-10-09T04:23:23.368Z,90.63
2022-10-09T04:25:54.304Z,90.76
2022-10-09T04:28:21.319Z,91.05
2022-10-09T04:30:47.797Z,91.11
2022-10-09T04:33:14.368Z,91.25
2022-10-09T04:35:45.291Z,91.20
2022-10-09T04:38:12.350Z,91.36
2022-10-09T04:40:38.824Z,91.41
2022-10-09T04:43:05.279Z,90.95
2022-10-09T04:45:31.822Z,91.36
2022-10-09T04:47:58.388Z,91.51
2022-10-09T04:50:24.840Z,91.44
2022-10-09T04:52:51.577Z,91.44
2022-10-09T04:55:18.127Z,91.68
2022-10-09T04:57:44.531Z,91.51
2022-10-09T05:00:11.905Z,91.55
2022-10-09T05:02:38.427Z,91.30
2022-10-09T05:05:05.248Z,91.02
2022-10-09T05:07:31.975Z,91.01
2022-10-09T05:09:58.363Z,91.53
2022-10-09T05:12:24.747Z,91.49
2022-10-09T05:14:51.231Z,91.52
2022-10-09T05:17:22.060Z,91.66
2022-10-09T05:19:49.512Z,91.70
2022-10-09T05:22:15.920Z,91.63
2022-10-09T05:24:42.310Z,91.71
2022-10-09T05:27:08.727Z,91.70
2022-10-09T05:29:35.162Z,91.74
2022-10-09T05:32:01.955Z,91.77
2022-10-09T05:34:28.526Z,91.72
2022-10-09T05:36:54.945Z,91.62
2022-10-09T05:39:21.398Z,91.48
2022-10-09T05:41:47.808Z,91.55
2022-10-09T05:44:14.376Z,91.60
2022-10-09T05:46:40.762Z,91.61
2022-10-09T05:49:07.258Z,91.24
2022-10-09T05:51:36.403Z,91.25
2022-10-09T05:54:03.756Z,91.17
2022-10-09T05:56:35.195Z,91.12
2022-10-09T05:59:03.059Z,91.46
2022-10-09T06:01:37.104Z,91.07
2022-10-09T06:04:04.610Z,91.06
2022-10-09T06:06:35.528Z,91.01
2022-10-09T06:09:01.959Z,91.08
2022-10-09T06:11:31.767Z,90.95
2022-10-09T06:14:00.258Z,90.91
2022-10-09T06:16:30.380Z,90.55
2022-10-09T06:18:57.715Z,90.53
2022-10-09T06:21:26.337Z,90.71
2022-10-09T06:24:00.834Z,90.60
2022-10-09T06:26:31.671Z,90.88
2022-10-09T06:28:59.634Z,90.65
2022-10-09T06:31:30.450Z,90.29
2022-10-09T06:33:59.489Z,90.17
2022-10-09T06:36:30.751Z,90.12
2022-10-09T06:39:00.044Z,90.19
2022-10-09T06:41:29.065Z,90.12
2022-10-09T06:43:58.279Z,90.08
2022-10-09T06:46:28.121Z,89.87
2022-10-09T06:48:54.693Z,89.83
2022-10-09T06:51:24.975Z,89.74
2022-10-09T06:53:53.610Z,89.64
2022-10-09T06:56:22.763Z,89.43
2022-10-09T06:58:49.330Z,89.46
2022-10-09T07:01:18.908Z,89.53
2022-10-09T07:03:47.924Z,89.48
2022-10-09T07:06:36.519Z,89.15
2022-10-09T07:09:06.048Z,88.75
2022-10-09T07:11:35.881Z,89.19
2022-10-09T07:14:05.966Z,88.96
2022-10-09T07:16:36.601Z,89.03
2022-10-09T07:19:07.516Z,88.78
2022-10-09T07:21:35.296Z,88.74
2022-10-09T07:24:02.787Z,88.45
2022-10-09T07:26:32.256Z,88.31
2022-10-09T07:29:00.130Z,88.10
2022-10-09T07:31:26.637Z,87.90
2022-10-09T07:33:56.502Z,87.90
2022-10-09T07:36:23.799Z,87.76
2022-10-09T07:38:52.197Z,87.82
2022-10-09T07:41:19.558Z,87.97
2022-10-09T07:43:46.068Z,87.84
2022-10-09T07:46:15.349Z,87.69
2022-10-09T07:48:42.093Z,87.44
2022-10-09T07:51:18.554Z,87.32
2022-10-09T07:53:45.648Z,87.40
2022-10-09T07:56:17.832Z,87.41
2022-10-09T07:58:54.386Z,87.38
2022-10-09T08:01:22.520Z,87.27
2022-10-09T08:03:50.279Z,87.07
2022-10-09T08:06:18.191Z,87.09
2022-10-09T08:08:45.388Z,87.26
2022-10-09T08:11:14.231Z,87.15
2022-10-09T08:13:42.432Z,87.14
2022-10-09T08:16:09.620Z,86.84
2022-10-09T08:18:36.770Z,87.00
2022-10-09T08:21:08.287Z,87.12
2022-10-09T08:23:35.295Z,86.85
2022-10-09T08:26:02.216Z,86.78
2022-10-09T08:28:28.748Z,86.78
2022-10-09T08:30:55.264Z,86.88
2022-10-09T08:33:23.373Z,86.98
2022-10-09T08:35:50.086Z,87.20
2022-10-09T08:38:37.399Z,87.21
2022-10-09T08:41:12.207Z,87.13
2022-10-09T08:43:47.279Z,87.14
2022-10-09T08:46:29.304Z,87.05
2022-10-09T08:48:56.113Z,87.00
2022-10-09T08:51:29.520Z,87.08
2022-10-09T08:54:04.468Z,87.16
2022-10-09T08:56:33.164Z,87.22
2022-10-09T08:58:59.584Z,87.47
2022-10-09T09:01:44.991Z,87.58
2022-10-09T09:04:32.863Z,87.51
2022-10-09T09:07:33.948Z,87.39
2022-10-09T09:10:10.738Z,87.51
2022-10-09T09:12:52.794Z,87.80
2022-10-09T09:15:22.144Z,88.07
2022-10-09T09:18:07.060Z,88.13
2022-10-09T09:20:51.671Z,88.27
2022-10-09T09:23:20.720Z,88.37
2022-10-09T09:25:47.494Z,88.70
2022-10-09T09:28:24.323Z,88.91
2022-10-09T09:30:57.903Z,89.21
2022-10-09T09:33:52.137Z,89.57
2022-10-09T09:36:25.061Z,89.74
2022-10-09T09:39:40.836Z,90.16
2022-10-09T09:41:40.274Z,90.37
2022-10-09T09:44:09.607Z,90.50
2022-10-09T09:46:38.077Z,91.27
2022-10-09T09:49:16.402Z,91.79
2022-10-09T09:51:42.763Z,92.23
2022-10-09T09:54:18.479Z,93.01
2022-10-09T09:59:42.014Z,96.11
2022-10-09T10:02:17.435Z,98.45
2022-10-09T10:04:53.406Z,100.00
2022-10-09T10:07:37.624Z,100.00
2022-10-09T10:10:10.410Z,100.00
2022-10-09T10:12:42.214Z,100.00
2022-10-09T10:15:17.880Z,100.00
2022-10-09T10:17:44.443Z,100.00
2022-10-09T10:20:15.988Z,100.00
2022-10-09T10:22:47.319Z,100.00
2022-10-09T10:25:18.347Z,100.00
2022-10-09T10:27:50.709Z,100.00
2022-10-09T10:30:19.787Z,100.00
2022-10-09T10:33:01.442Z,100.00
2022-10-09T10:35:32.756Z,100.00
2022-10-09T10:38:23.852Z,100.00
2022-10-09T10:41:15.196Z,100.00
2022-10-09T10:43:50.579Z,100.00
2022-10-09T10:46:38.370Z,100.00
2022-10-09T10:49:08.110Z,100.00
2022-10-09T10:51:56.099Z,100.00
2022-10-09T10:54:22.474Z,100.00
2022-10-09T10:56:56.374Z,100.00
2022-10-09T10:59:39.879Z,100.00
2022-10-09T11:02:18.167Z,100.00
2022-10-09T11:05:05.912Z,100.00
2022-10-09T11:07:42.751Z,100.00
2022-10-09T11:10:35.667Z,100.00
2022-10-09T11:13:15.155Z,100.00
2022-10-09T11:16:16.925Z,100.00
2022-10-09T11:19:01.879Z,100.00
2022-10-09T11:21:36.084Z,100.00
2022-10-09T11:24:27.113Z,100.00
2022-10-09T11:27:13.735Z,100.00
2022-10-09T11:29:45.319Z,100.00
2022-10-09T11:32:22.555Z,100.00
2022-10-09T11:34:58.446Z,100.00
2022-10-09T11:37:29.669Z,100.00
2022-10-09T11:39:56.508Z,100.00
2022-10-09T11:42:25.611Z,100.00
2022-10-09T11:45:27.191Z,100.00
2022-10-09T11:48:10.124Z,100.00
2022-10-09T11:50:47.614Z,100.00
2022-10-09T11:53:20.710Z,100.00
2022-10-09T11:55:48.503Z,100.00
2022-10-09T11:58:23.655Z,100.00
2022-10-09T12:00:54.351Z,100.00
2022-10-09T12:03:33.243Z,100.00
2022-10-09T12:06:07.251Z,100.00
2022-10-09T12:08:33.980Z,100.00
2022-10-09T12:11:16.306Z,100.00
2022-10-09T12:14:05.383Z,100.00
2022-10-09T12:16:45.784Z,100.00
2022-10-09T12:19:24.031Z,100.00
2022-10-09T12:21:59.799Z,100.00
2022-10-09T12:24:32.267Z,100.00
2022-10-09T12:27:03.180Z,100.00
2022-10-09T12:29:50.464Z,100.00
2022-10-09T12:32:35.482Z,100.00
2022-10-09T12:35:21.360Z,100.00
2022-10-09T12:37:47.899Z,100.00
2022-10-09T12:40:18.300Z,100.00
2022-10-09T12:42:45.437Z,100.00
2022-10-09T12:45:24.134Z,100.00
2022-10-09T12:47:52.335Z,100.00
2022-10-09T12:50:21.973Z,100.00
2022-10-09T12:52:57.375Z,100.00
2022-10-09T12:55:27.663Z,100.00
2022-10-09T12:57:58.596Z,100.00
2022-10-09T13:00:25.269Z,100.00
2022-10-09T13:02:52.068Z,100.00
2022-10-09T13:05:18.943Z,100.00
2022-10-09T13:07:52.674Z,100.00
2022-10-09T13:10:22.752Z,100.00
2022-10-09T13:12:52.123Z,100.00
2022-10-09T13:15:34.574Z,100.00
2022-10-09T13:18:12.624Z,100.00
2022-10-09T13:20:39.038Z,100.00
2022-10-09T13:23:06.319Z,100.00
2022-10-09T13:25:37.109Z,100.00
2022-10-09T13:28:04.491Z,100.00
2022-10-09T13:30:31.254Z,100.00
2022-10-09T13:32:58.711Z,100.00
2022-10-09T13:35:25.331Z,100.00
2022-10-09T13:37:52.481Z,100.00
2022-10-09T13:40:21.652Z,100.00
2022-10-09T13:42:54.029Z,100.00
2022-10-09T13:45:20.754Z,100.00
2022-10-09T13:47:47.592Z,100.00
2022-10-09T13:50:15.287Z,100.00
2022-10-09T13:52:42.106Z,100.00
2022-10-09T13:55:09.107Z,100.00
2022-10-09T13:57:35.577Z,100.00
2022-10-09T14:00:02.285Z,100.00
2022-10-09T14:02:28.680Z,100.00
2022-10-09T14:04:55.127Z,100.00
2022-10-09T14:07:21.554Z,100.00
2022-10-09T14:09:47.992Z,100.00
2022-10-09T14:12:14.485Z,100.00
2022-10-09T14:14:40.943Z,100.00
2022-10-09T14:17:07.380Z,100.00
2022-10-09T14:19:34.128Z,100.00
2022-10-09T14:22:00.583Z,100.00
2022-10-09T14:24:27.195Z,100.00
2022-10-09T14:26:53.677Z,100.00
2022-10-09T14:29:20.145Z,100.00
2022-10-09T14:31:49.185Z,100.00
2022-10-09T14:34:15.634Z,100.00
2022-10-09T14:36:42.299Z,100.00
2022-10-09T14:39:08.703Z,100.00
2022-10-09T14:41:37.765Z,100.00
2022-10-09T14:44:05.660Z,100.00
2022-10-09T14:46:33.878Z,100.00
2022-10-09T14:49:07.162Z,100.00
2022-10-09T14:51:36.918Z,100.00
2022-10-09T14:54:04.327Z,100.00
2022-10-09T14:56:30.930Z,100.00
2022-10-09T14:58:58.416Z,100.00
2022-10-09T15:01:24.910Z,100.00
2022-10-09T15:03:51.554Z,100.00
2022-10-09T15:06:20.097Z,100.00
2022-10-09T15:08:46.510Z,100.00
2022-10-09T15:11:13.216Z,100.00
2022-10-09T15:13:40.054Z,100.00
2022-10-09T15:16:13.894Z,100.00
2022-10-09T15:18:40.735Z,100.00
2022-10-09T15:21:18.736Z,100.00
2022-10-09T15:23:46.028Z,100.00
2022-10-09T15:26:13.522Z,100.00
2022-10-09T15:28:42.245Z,100.00
2022-10-09T15:31:18.639Z,100.00
2022-10-09T15:33:45.069Z,100.00
2022-10-09T15:36:11.464Z,100.00
2022-10-09T15:38:37.885Z,100.00
2022-10-09T15:41:04.339Z,100.00
2022-10-09T15:43:31.742Z,100.00
2022-10-09T15:46:03.388Z,100.00
2022-10-09T15:48:30.844Z,100.00
2022-10-09T15:50:57.271Z,100.00
2022-10-09T15:53:24.344Z,100.00
2022-10-09T15:55:53.012Z,100.00
2022-10-09T15:58:20.029Z,100.00
2022-10-09T16:00:49.385Z,100.00
2022-10-09T16:03:16.842Z,100.00
2022-10-09T16:05:47.621Z,100.00
2022-10-09T16:08:15.299Z,100.00
2022-10-09T16:10:49.035Z,100.00
2022-10-09T16:13:16.463Z,100.00
2022-10-09T16:15:44.597Z,100.00
2022-10-09T16:18:11.748Z,100.00
2022-10-09T16:20:39.432Z,100.00
2022-10-09T16:23:06.890Z,100.00
2022-10-09T16:25:33.920Z,100.00
2022-10-09T16:28:00.418Z,100.00
2022-10-09T16:30:27.899Z,100.00
2022-10-09T16:32:54.518Z,100.00
2022-10-09T16:35:22.313Z,100.00
2022-10-09T16:37:53.000Z,100.00
2022-10-09T16:40:21.082Z,100.00
2022-10-09T16:42:52.255Z,100.00
2022-10-09T16:45:20.055Z,100.00
2022-10-09T16:47:48.496Z,100.00
2022-10-09T16:50:15.211Z,100.00
2022-10-09T16:52:41.745Z,100.00
2022-10-09T16:55:08.680Z,100.00
2022-10-09T16:57:35.165Z,100.00
2022-10-09T17:00:03.636Z,100.00
2022-10-09T17:02:30.062Z,100.00
2022-10-09T17:04:58.736Z,100.00
2022-10-09T17:07:25.272Z,100.00
2022-10-09T17:09:52.511Z,100.00
2022-10-09T17:12:19.299Z,100.00
2022-10-09T17:14:47.471Z,100.00
2022-10-09T17:17:14.093Z,100.00
2022-10-09T17:19:40.934Z,100.00
2022-10-09T17:22:07.856Z,100.00
2022-10-09T17:24:34.407Z,100.00
2022-10-09T17:27:00.952Z,100.00
2022-10-09T17:29:27.448Z,100.00
2022-10-09T17:31:53.866Z,100.00
2022-10-09T17:34:20.372Z,100.00
2022-10-09T17:36:46.789Z,100.00
2022-10-09T17:39:17.493Z,100.00
2022-10-09T17:41:46.183Z,100.00
2022-10-09T17:44:14.986Z,100.00
2022-10-09T17:46:41.947Z,100.00
2022-10-09T17:49:09.014Z,100.00
2022-10-09T17:51:38.879Z,100.00
2022-10-09T17:54:11.027Z,100.00
2022-10-09T17:56:39.267Z,100.00
2022-10-09T17:59:05.753Z,100.00
2022-10-09T18:01:32.346Z,100.00
2022-10-09T18:03:59.390Z,100.00
2022-10-09T18:06:27.063Z,100.00
2022-10-09T18:08:55.806Z,100.00
2022-10-09T18:11:23.998Z,100.00
2022-10-09T18:13:51.104Z,100.00
2022-10-09T18:16:22.757Z,100.00
2022-10-09T18:18:49.229Z,100.00
2022-10-09T18:21:16.987Z,100.00
2022-10-09T18:23:45.741Z,100.00
2022-10-09T18:26:15.643Z,100.00
2022-10-09T18:28:44.781Z,100.00
2022-10-09T18:31:17.401Z,100.00
2022-10-09T18:33:43.995Z,100.00
2022-10-09T18:36:18.153Z,100.00
2022-10-09T18:38:54.712Z,100.00
2022-10-09T18:41:22.783Z,100.00
2022-10-09T18:43:50.721Z,100.00
2022-10-09T18:46:20.698Z,100.00
2022-10-09T18:48:47.533Z,100.00
2022-10-09T18:51:18.212Z,100.00
2022-10-09T18:53:48.610Z,100.00
2022-10-09T18:56:17.762Z,100.00
2022-10-09T18:58:44.396Z,100.00
2022-10-09T19:01:10.866Z,100.00
2022-10-09T19:03:37.315Z,100.00
2022-10-09T19:06:04.513Z,100.00
2022-10-09T19:08:31.011Z,100.00
2022-10-09T19:10:57.501Z,100.00
2022-10-09T19:13:25.007Z,100.00
2022-10-09T19:15:53.144Z,100.00
2022-10-09T19:18:20.204Z,100.00
2022-10-09T19:20:46.883Z,100.00
2022-10-09T19:23:15.147Z,100.00
2022-10-09T19:25:49.919Z,100.00
2022-10-09T19:28:17.114Z,100.00
2022-10-09T19:30:44.794Z,100.00
2022-10-09T19:33:11.638Z,100.00
2022-10-09T19:35:54.689Z,100.00
2022-10-09T19:38:22.496Z,100.00
2022-10-09T19:40:49.721Z,100.00
2022-10-09T19:43:18.045Z,100.00
2022-10-09T19:45:44.675Z,100.00
2022-10-09T19:48:11.169Z,100.00
2022-10-09T19:50:42.413Z,100.00
2022-10-09T19:53:09.487Z,100.00
2022-10-09T19:55:36.921Z,100.00
2022-10-09T19:58:03.987Z,100.00
2022-10-09T20:00:30.933Z,100.00
2022-10-09T20:02:57.562Z,100.00
2022-10-09T20:05:24.229Z,100.00
2022-10-09T20:07:51.000Z,100.00
2022-10-09T20:10:17.787Z,100.00
2022-10-09T20:12:44.359Z,100.00
2022-10-09T20:15:11.035Z,100.00
2022-10-09T20:17:37.626Z,100.00
2022-10-09T20:20:05.201Z,100.00
2022-10-09T20:22:31.918Z,100.00
2022-10-09T20:24:58.395Z,100.00
2022-10-09T20:27:25.082Z,100.00
2022-10-09T20:29:53.247Z,100.00
2022-10-09T20:32:20.234Z,100.00
2022-10-09T20:34:46.831Z,100.00
2022-10-09T20:37:13.456Z,100.00
2022-10-09T20:39:40.078Z,100.00
2022-10-09T20:42:06.851Z,100.00
2022-10-09T20:44:33.330Z,100.00
2022-10-09T20:46:59.847Z,100.00
2022-10-09T20:49:26.716Z,100.00
2022-10-09T20:51:53.245Z,100.00
2022-10-09T20:54:21.603Z,100.00
2022-10-09T20:56:48.527Z,100.00
2022-10-09T20:59:16.955Z,100.00
2022-10-09T21:01:43.858Z,100.00
2022-10-09T21:04:11.606Z,100.00
2022-10-09T21:06:38.489Z,100.00
2022-10-09T21:09:05.243Z,100.00
2022-10-09T21:11:32.561Z,100.00
2022-10-09T21:13:59.096Z,100.00
2022-10-09T21:16:26.037Z,100.00
2022-10-09T21:18:58.469Z,100.00
2022-10-09T21:21:25.330Z,100.00
2022-10-09T21:23:53.787Z,100.00
2022-10-09T21:26:21.811Z,100.00
2022-10-09T21:28:48.503Z,100.00
2022-10-09T21:31:22.878Z,100.00
2022-10-09T21:33:49.954Z,100.00
2022-10-09T21:36:21.742Z,100.00
2022-10-09T21:38:48.193Z,100.00
2022-10-09T21:41:14.635Z,100.00
2022-10-09T21:43:41.027Z,100.00
2022-10-09T21:46:07.460Z,100.00
2022-10-09T21:48:33.863Z,100.00
2022-10-09T21:51:00.266Z,100.00
2022-10-09T21:53:26.679Z,100.00
2022-10-09T21:55:53.072Z,100.00
2022-10-09T21:58:19.498Z,100.00
2022-10-09T22:00:45.955Z,100.00
2022-10-09T22:03:12.370Z,100.00
2022-10-09T22:05:40.685Z,100.00
2022-10-09T22:08:07.009Z,100.00
2022-10-09T22:10:33.404Z,100.00
2022-10-09T22:12:59.800Z,100.00
2022-10-09T22:15:26.364Z,100.00
2022-10-09T22:17:52.759Z,100.00
2022-10-09T22:20:19.171Z,100.00
2022-10-09T22:22:45.631Z,100.00
2022-10-09T22:25:12.065Z,100.00
2022-10-09T22:27:38.461Z,100.00
2022-10-09T22:30:05.536Z,100.00
2022-10-09T22:32:32.012Z,100.00
2022-10-09T22:34:58.436Z,100.00
2022-10-09T22:37:25.045Z,100.00
2022-10-09T22:39:51.464Z,100.00
2022-10-09T22:42:17.931Z,100.00
2022-10-09T22:44:44.369Z,100.00
2022-10-09T22:47:10.933Z,100.00
2022-10-09T22:49:37.375Z,100.00
2022-10-09T22:52:04.219Z,100.00
2022-10-09T22:54:30.680Z,100.00
2022-10-09T22:56:57.077Z,100.00
2022-10-09T22:59:23.530Z,100.00
2022-10-09T23:01:55.999Z,100.00
2022-10-09T23:04:23.030Z,100.00
2022-10-09T23:06:55.286Z,100.00
2022-10-09T23:09:23.738Z,100.00
2022-10-09T23:11:50.372Z,100.00
2022-10-09T23:14:16.995Z,100.00
2022-10-09T23:16:43.835Z,100.00
2022-10-09T23:19:10.477Z,100.00
2022-10-09T23:21:39.104Z,100.00
2022-10-09T23:24:06.300Z,100.00
2022-10-09T23:26:34.715Z,100.00
2022-10-09T23:29:02.359Z,100.00
2022-10-09T23:31:29.283Z,100.00
2022-10-09T23:33:56.299Z,100.00
2022-10-09T23:36:25.067Z,100.00
2022-10-09T23:38:51.868Z,100.00
2022-10-09T23:41:21.043Z,100.00
2022-10-09T23:43:48.485Z,100.00
2022-10-09T23:46:17.399Z,100.00
2022-10-09T23:48:44.748Z,100.00
2022-10-09T23:51:13.929Z,100.00
2022-10-09T23:53:41.773Z,100.00
2022-10-09T23:56:29.943Z,100.00
2022-10-09T23:58:56.759Z,100.00
